sensor_id;sensor_type;location;lat;lon;timestamp;pressure;altitude;pressure_sealevel;temperature;humidity
20424;BME280;10371;49.042;8.002;2023-12-20T00:00:29;100027.41;;;5.46;100.00
20424;BME280;10371;49.042;8.002;2023-12-20T00:01:29;100019.47;;;5.49;100.00
20424;BME280;10371;49.042;8.002;2023-12-20T00:02:29;100014.38;;;5.48;100.00
20424;BME280;10371;49.042;8.002;2023-12-20T00:03:30;100015.41;;;5.45;100.00
20424;BME280;10371;49.042;8.002;2023-12-20T00:04:30;100011.81;;;5.48;100.00
20424;BME280;10371;49.042;8.002;2023-12-20T00:05:30;100018.56;;;5.50;100.00
20424;BME280;10371;49.042;8.002;2023-12-20T00:06:34;100015.31;;;5.47;100.00
20424;BME280;10371;49.042;8.002;2023-12-20T00:07:35;100014.56;;;5.45;100.00
20424;BME280;10371;49.042;8.002;2023-12-20T00:08:35;100014.56;;;5.45;100.00
20424;BME280;10371;49.042;8.002;2023-12-20T00:09:35;100010.34;;;5.44;100.00
20424;BME280;10371;49.042;8.002;2023-12-20T00:10:36;100013.91;;;5.41;100.00
20424;BME280;10371;49.042;8.002;2023-12-20T00:11:36;100011.41;;;5.40;100.00
20424;BME280;10371;49.042;8.002;2023-12-20T00:12:36;100013.09;;;5.41;100.00
20424;BME280;10371;49.042;8.002;2023-12-20T00:13:36;99997.75;;;5.37;100.00
20424;BME280;10371;49.042;8.002;2023-12-20T00:14:37;100006.00;;;5.44;100.00
20424;BME280;10371;49.042;8.002;2023-12-20T00:15:37;100001.41;;;5.49;100.00
20424;BME280;10371;49.042;8.002;2023-12-20T00:16:37;100003.06;;;5.50;100.00
20424;BME280;10371;49.042;8.002;2023-12-20T00:17:37;100002.41;;;5.47;100.00
20424;BME280;10371;49.042;8.002;2023-12-20T00:18:38;100006.00;;;5.44;100.00
20424;BME280;10371;49.042;8.002;2023-12-20T00:19:38;100005.06;;;5.45;100.00
20424;BME280;10371;49.042;8.002;2023-12-20T00:20:38;100003.41;;;5.44;100.00
20424;BME280;10371;49.042;8.002;2023-12-20T00:21:39;100004.50;;;5.40;100.00
20424;BME280;10371;49.042;8.002;2023-12-20T00:22:39;99999.25;;;5.42;100.00
20424;BME280;10371;49.042;8.002;2023-12-20T00:23:39;100002.75;;;5.41;100.00
20424;BME280;10371;49.042;8.002;2023-12-20T00:24:40;100005.66;;;5.34;100.00
20424;BME280;10371;49.042;8.002;2023-12-20T00:25:40;100000.50;;;5.34;100.00
20424;BME280;10371;49.042;8.002;2023-12-20T00:26:40;100007.53;;;5.32;100.00
20424;BME280;10371;49.042;8.002;2023-12-20T00:27:41;100005.75;;;5.33;100.00
20424;BME280;10371;49.042;8.002;2023-12-20T00:28:41;99998.84;;;5.33;100.00
20424;BME280;10371;49.042;8.002;2023-12-20T00:29:42;100003.94;;;5.35;100.00
20424;BME280;10371;49.042;8.002;2023-12-20T00:30:47;99999.59;;;5.35;100.00
20424;BME280;10371;49.042;8.002;2023-12-20T00:31:48;100003.19;;;5.33;100.00
20424;BME280;10371;49.042;8.002;2023-12-20T00:32:48;99998.91;;;5.32;100.00
20424;BME280;10371;49.042;8.002;2023-12-20T00:33:48;99999.59;;;5.35;100.00
20424;BME280;10371;49.042;8.002;2023-12-20T00:34:49;99997.03;;;5.35;100.00
20424;BME280;10371;49.042;8.002;2023-12-20T00:35:49;99997.66;;;5.39;100.00
20424;BME280;10371;49.042;8.002;2023-12-20T00:36:49;99997.75;;;5.37;100.00
20424;BME280;10371;49.042;8.002;2023-12-20T00:37:50;100003.09;;;5.34;100.00
20424;BME280;10371;49.042;8.002;2023-12-20T00:38:50;100006.53;;;5.35;100.00
20424;BME280;10371;49.042;8.002;2023-12-20T00:39:51;100009.94;;;5.35;100.00
20424;BME280;10371;49.042;8.002;2023-12-20T00:40:51;100005.59;;;5.36;100.00
20424;BME280;10371;49.042;8.002;2023-12-20T00:41:52;100007.06;;;5.40;100.00
20424;BME280;10371;49.042;8.002;2023-12-20T00:42:52;100007.06;;;5.40;100.00
20424;BME280;10371;49.042;8.002;2023-12-20T00:43:52;100006.81;;;5.45;100.00
20424;BME280;10371;49.042;8.002;2023-12-20T00:44:52;100015.66;;;5.41;100.00
20424;BME280;10371;49.042;8.002;2023-12-20T00:45:53;100011.41;;;5.40;100.00
20424;BME280;10371;49.042;8.002;2023-12-20T00:46:53;100018.25;;;5.41;100.00
20424;BME280;10371;49.042;8.002;2023-12-20T00:47:53;100011.41;;;5.40;100.00
20424;BME280;10371;49.042;8.002;2023-12-20T00:48:53;100015.66;;;5.41;100.00
20424;BME280;10371;49.042;8.002;2023-12-20T00:49:54;100022.66;;;5.38;100.00
20424;BME280;10371;49.042;8.002;2023-12-20T00:50:54;100011.59;;;5.36;100.00
20424;BME280;10371;49.042;8.002;2023-12-20T00:51:54;100015.81;;;5.37;100.00
20424;BME280;10371;49.042;8.002;2023-12-20T00:52:55;100007.94;;;5.41;100.00
20424;BME280;10371;49.042;8.002;2023-12-20T00:53:55;100013.09;;;5.41;100.00
20424;BME280;10371;49.042;8.002;2023-12-20T00:54:55;100012.34;;;5.38;100.00
20424;BME280;10371;49.042;8.002;2023-12-20T00:55:55;100008.81;;;5.40;100.00
20424;BME280;10371;49.042;8.002;2023-12-20T00:56:56;100011.41;;;5.40;100.00
20424;BME280;10371;49.042;8.002;2023-12-20T00:57:56;100013.22;;;5.37;100.00
20424;BME280;10371;49.042;8.002;2023-12-20T00:58:56;100010.41;;;5.42;100.00
20424;BME280;10371;49.042;8.002;2023-12-20T00:59:57;100007.94;;;5.41;100.00
20424;BME280;10371;49.042;8.002;2023-12-20T01:00:57;100008.00;;;5.39;100.00
20424;BME280;10371;49.042;8.002;2023-12-20T01:01:58;100004.41;;;5.42;100.00
20424;BME280;10371;49.042;8.002;2023-12-20T01:02:58;100000.25;;;5.39;100.00
20424;BME280;10371;49.042;8.002;2023-12-20T01:03:58;99998.50;;;5.40;100.00
20424;BME280;10371;49.042;8.002;2023-12-20T01:04:59;99995.03;;;5.41;100.00
20424;BME280;10371;49.042;8.002;2023-12-20T01:05:59;99994.91;;;5.42;100.00
20424;BME280;10371;49.042;8.002;2023-12-20T01:06:59;99992.09;;;5.47;100.00
20424;BME280;10371;49.042;8.002;2023-12-20T01:07:59;99994.56;;;5.48;100.00
20424;BME280;10371;49.042;8.002;2023-12-20T01:09:00;100009.59;;;5.42;100.00
20424;BME280;10371;49.042;8.002;2023-12-20T01:10:00;100004.41;;;5.42;100.00
20424;BME280;10371;49.042;8.002;2023-12-20T01:11:00;100006.06;;;5.43;100.00
20424;BME280;10371;49.042;8.002;2023-12-20T01:12:00;100000.91;;;5.43;100.00
20424;BME280;10371;49.042;8.002;2023-12-20T01:13:01;100002.66;;;5.42;100.00
20424;BME280;10371;49.042;8.002;2023-12-20T01:14:01;100002.41;;;5.47;100.00
20424;BME280;10371;49.042;8.002;2023-12-20T01:15:01;100004.88;;;5.48;100.00
20424;BME280;10371;49.042;8.002;2023-12-20T01:16:02;99999.72;;;5.48;100.00
20424;BME280;10371;49.042;8.002;2023-12-20T01:17:02;100004.81;;;5.50;100.00
20424;BME280;10371;49.042;8.002;2023-12-20T01:18:03;100001.13;;;5.54;100.00
20424;BME280;10371;49.042;8.002;2023-12-20T01:19:03;100002.22;;;5.50;100.00
20424;BME280;10371;49.042;8.002;2023-12-20T01:20:04;99996.25;;;5.49;100.00
20424;BME280;10371;49.042;8.002;2023-12-20T01:21:05;99995.25;;;5.52;100.00
20424;BME280;10371;49.042;8.002;2023-12-20T01:22:05;100003.06;;;5.50;100.00
20424;BME280;10371;49.042;8.002;2023-12-20T01:23:05;99996.13;;;5.51;100.00
20424;BME280;10371;49.042;8.002;2023-12-20T01:24:05;99992.66;;;5.52;100.00
20424;BME280;10371;49.042;8.002;2023-12-20T01:25:06;99994.31;;;5.53;100.00
20424;BME280;10371;49.042;8.002;2023-12-20T01:26:07;99984.72;;;5.55;100.00
20424;BME280;10371;49.042;8.002;2023-12-20T01:27:07;99990.63;;;5.57;100.00
20424;BME280;10371;49.042;8.002;2023-12-20T01:28:07;99987.31;;;5.55;100.00
20424;BME280;10371;49.042;8.002;2023-12-20T01:29:07;99987.13;;;5.58;100.00
20424;BME280;10371;49.042;8.002;2023-12-20T01:30:08;99979.22;;;5.61;100.00
20424;BME280;10371;49.042;8.002;2023-12-20T01:31:09;99982.72;;;5.60;100.00
20424;BME280;10371;49.042;8.002;2023-12-20T01:32:09;99985.47;;;5.57;100.00
20424;BME280;10371;49.042;8.002;2023-12-20T01:33:09;99993.19;;;5.57;100.00
20424;BME280;10371;49.042;8.002;2023-12-20T01:34:09;99991.72;;;5.53;100.00
20424;BME280;10371;49.042;8.002;2023-12-20T01:35:10;99989.31;;;5.50;100.00
20424;BME280;10371;49.042;8.002;2023-12-20T01:36:10;99992.72;;;5.50;100.00
20424;BME280;10371;49.042;8.002;2023-12-20T01:37:11;99986.81;;;5.48;100.00
20424;BME280;10371;49.042;8.002;2023-12-20T01:38:11;99987.75;;;5.47;100.00
20424;BME280;10371;49.042;8.002;2023-12-20T01:39:11;99983.22;;;5.51;100.00
20424;BME280;10371;49.042;8.002;2023-12-20T01:40:12;99982.34;;;5.52;100.00
20424;BME280;10371;49.042;8.002;2023-12-20T01:41:12;99983.06;;;5.54;100.00
20424;BME280;10371;49.042;8.002;2023-12-20T01:42:12;99981.22;;;5.56;100.00
20424;BME280;10371;49.042;8.002;2023-12-20T01:43:13;99984.63;;;5.56;100.00
20424;BME280;10371;49.042;8.002;2023-12-20T01:44:13;99974.03;;;5.61;100.00
20424;BME280;10371;49.042;8.002;2023-12-20T01:45:13;99975.34;;;5.68;100.00
20424;BME280;10371;49.042;8.002;2023-12-20T01:46:14;99977.91;;;5.68;100.00
20424;BME280;10371;49.042;8.002;2023-12-20T01:47:16;99980.69;;;5.65;100.00
20424;BME280;10371;49.042;8.002;2023-12-20T01:48:16;99973.13;;;5.62;100.00
20424;BME280;10371;49.042;8.002;2023-12-20T01:49:17;99976.69;;;5.59;100.00
20424;BME280;10371;49.042;8.002;2023-12-20T01:50:17;99972.41;;;5.60;100.00
20424;BME280;10371;49.042;8.002;2023-12-20T01:51:17;99972.41;;;5.60;100.00
20424;BME280;10371;49.042;8.002;2023-12-20T01:52:19;99972.47;;;5.58;100.00
20424;BME280;10371;49.042;8.002;2023-12-20T01:53:21;99974.47;;;5.53;100.00
20424;BME280;10371;49.042;8.002;2023-12-20T01:54:24;99974.31;;;5.56;100.00
20424;BME280;10371;49.042;8.002;2023-12-20T01:55:25;99981.97;;;5.58;100.00
20424;BME280;10371;49.042;8.002;2023-12-20T01:56:28;99973.28;;;5.59;100.00
20424;BME280;10371;49.042;8.002;2023-12-20T01:57:30;99974.88;;;5.62;100.00
20424;BME280;10371;49.042;8.002;2023-12-20T01:58:30;99973.03;;;5.64;100.00
20424;BME280;10371;49.042;8.002;2023-12-20T01:59:31;99971.28;;;5.64;100.00
20424;BME280;10371;49.042;8.002;2023-12-20T02:00:31;99970.47;;;5.64;100.00
20424;BME280;10371;49.042;8.002;2023-12-20T02:01:31;99970.28;;;5.67;100.00
20424;BME280;10371;49.042;8.002;2023-12-20T02:02:33;99970.16;;;5.68;100.00
20424;BME280;10371;49.042;8.002;2023-12-20T02:03:34;99969.16;;;5.71;100.00
20424;BME280;10371;49.042;8.002;2023-12-20T02:04:36;99976.19;;;5.69;100.00
20424;BME280;10371;49.042;8.002;2023-12-20T02:05:38;99964.94;;;5.70;100.00
20424;BME280;10371;49.042;8.002;2023-12-20T02:06:39;99966.69;;;5.69;100.00
20424;BME280;10371;49.042;8.002;2023-12-20T02:07:40;99959.84;;;5.68;100.00
20424;BME280;10371;49.042;8.002;2023-12-20T02:08:40;99966.69;;;5.69;100.00
20424;BME280;10371;49.042;8.002;2023-12-20T02:09:41;99966.69;;;5.69;100.00
20424;BME280;10371;49.042;8.002;2023-12-20T02:10:41;99958.94;;;5.69;100.00
20424;BME280;10371;49.042;8.002;2023-12-20T02:11:43;99963.34;;;5.67;100.00
20424;BME280;10371;49.042;8.002;2023-12-20T02:12:43;99958.00;;;5.70;100.00
20424;BME280;10371;49.042;8.002;2023-12-20T02:13:43;99957.25;;;5.68;100.00
20424;BME280;10371;49.042;8.002;2023-12-20T02:14:43;99954.41;;;5.73;100.00
20424;BME280;10371;49.042;8.002;2023-12-20T02:15:44;99953.41;;;5.75;100.00
20424;BME280;10371;49.042;8.002;2023-12-20T02:16:44;99960.41;;;5.73;100.00
20424;BME280;10371;49.042;8.002;2023-12-20T02:17:46;99959.59;;;5.73;100.00
20424;BME280;10371;49.042;8.002;2023-12-20T02:18:47;99963.00;;;5.73;100.00
20424;BME280;10371;49.042;8.002;2023-12-20T02:19:47;99957.75;;;5.75;100.00
20424;BME280;10371;49.042;8.002;2023-12-20T02:20:47;99960.22;;;5.76;100.00
20424;BME280;10371;49.042;8.002;2023-12-20T02:21:48;99967.91;;;5.78;100.00
20424;BME280;10371;49.042;8.002;2023-12-20T02:22:48;99961.91;;;5.77;100.00
20424;BME280;10371;49.042;8.002;2023-12-20T02:23:48;99963.56;;;5.78;100.00
20424;BME280;10371;49.042;8.002;2023-12-20T02:24:48;99967.97;;;5.76;100.00
20424;BME280;10371;49.042;8.002;2023-12-20T02:25:49;99971.66;;;5.72;100.00
20424;BME280;10371;49.042;8.002;2023-12-20T02:26:49;99974.91;;;5.76;100.00
20424;BME280;10371;49.042;8.002;2023-12-20T02:27:49;99968.91;;;5.75;100.00
20424;BME280;10371;49.042;8.002;2023-12-20T02:28:50;99977.59;;;5.74;100.00
20424;BME280;10371;49.042;8.002;2023-12-20T02:29:50;99967.97;;;5.76;100.00
20424;BME280;10371;49.042;8.002;2023-12-20T02:30:51;99972.13;;;5.79;100.00
20424;BME280;10371;49.042;8.002;2023-12-20T02:31:51;99970.41;;;5.79;100.00
20424;BME280;10371;49.042;8.002;2023-12-20T02:32:52;99976.28;;;5.81;100.00
20424;BME280;10371;49.042;8.002;2023-12-20T02:33:52;99978.81;;;5.83;100.00
20424;BME280;10371;49.042;8.002;2023-12-20T02:34:53;99979.63;;;5.83;100.00
20424;BME280;10371;49.042;8.002;2023-12-20T02:35:53;99975.66;;;5.78;100.00
20424;BME280;10371;49.042;8.002;2023-12-20T02:36:54;99983.97;;;5.83;100.00
20424;BME280;10371;49.042;8.002;2023-12-20T02:37:54;99974.47;;;5.83;100.00
20424;BME280;10371;49.042;8.002;2023-12-20T02:38:54;99982.13;;;5.85;100.00
20424;BME280;10371;49.042;8.002;2023-12-20T02:39:55;99985.63;;;5.84;100.00
20424;BME280;10371;49.042;8.002;2023-12-20T02:40:55;99987.31;;;5.85;100.00
20424;BME280;10371;49.042;8.002;2023-12-20T02:41:55;99986.44;;;5.85;100.00
20424;BME280;10371;49.042;8.002;2023-12-20T02:42:55;99984.59;;;5.87;100.00
20424;BME280;10371;49.042;8.002;2023-12-20T02:43:56;99987.94;;;5.89;100.00
20424;BME280;10371;49.042;8.002;2023-12-20T02:44:56;99981.94;;;5.88;100.00
20424;BME280;10371;49.042;8.002;2023-12-20T02:45:56;99989.78;;;5.87;100.00
20424;BME280;10371;49.042;8.002;2023-12-20T02:46:56;99988.03;;;5.87;100.00
20424;BME280;10371;49.042;8.002;2023-12-20T02:47:57;99989.88;;;5.85;100.00
20424;BME280;10371;49.042;8.002;2023-12-20T02:48:57;99990.91;;;5.82;100.00
20424;BME280;10371;49.042;8.002;2023-12-20T02:49:57;99984.97;;;5.80;100.00
20424;BME280;10371;49.042;8.002;2023-12-20T02:50:57;99985.72;;;5.82;100.00
20424;BME280;10371;49.042;8.002;2023-12-20T02:51:58;99979.63;;;5.83;100.00
20424;BME280;10371;49.042;8.002;2023-12-20T02:52:58;99975.41;;;5.82;100.00
20424;BME280;10371;49.042;8.002;2023-12-20T02:53:58;99972.69;;;5.84;100.00
20424;BME280;10371;49.042;8.002;2023-12-20T02:54:58;99973.44;;;5.86;100.00
20424;BME280;10371;49.042;8.002;2023-12-20T02:55:59;99966.53;;;5.87;100.00
20424;BME280;10371;49.042;8.002;2023-12-20T02:56:59;99955.38;;;5.86;100.00
20424;BME280;10371;49.042;8.002;2023-12-20T02:57:59;99970.94;;;5.85;100.00
20424;BME280;10371;49.042;8.002;2023-12-20T02:59:00;99972.81;;;5.82;100.00
20424;BME280;10371;49.042;8.002;2023-12-20T03:00:00;99973.53;;;5.85;100.00
20424;BME280;10371;49.042;8.002;2023-12-20T03:01:00;99964.13;;;5.83;100.00
20424;BME280;10371;49.042;8.002;2023-12-20T03:02:01;99962.94;;;5.89;100.00
20424;BME280;10371;49.042;8.002;2023-12-20T03:03:01;99957.94;;;5.86;100.00
20424;BME280;10371;49.042;8.002;2023-12-20T03:04:01;99966.78;;;5.82;100.00
20424;BME280;10371;49.042;8.002;2023-12-20T03:05:02;99969.28;;;5.83;100.00
20424;BME280;10371;49.042;8.002;2023-12-20T03:06:03;99965.78;;;5.85;100.00
20424;BME280;10371;49.042;8.002;2023-12-20T03:07:03;99968.19;;;5.88;100.00
20424;BME280;10371;49.042;8.002;2023-12-20T03:08:04;99970.59;;;5.91;100.00
20424;BME280;10371;49.042;8.002;2023-12-20T03:09:04;99975.84;;;5.89;100.00
20424;BME280;10371;49.042;8.002;2023-12-20T03:10:05;99980.28;;;5.87;100.00
20424;BME280;10371;49.042;8.002;2023-12-20T03:11:07;99984.59;;;5.87;100.00
20424;BME280;10371;49.042;8.002;2023-12-20T03:12:07;99978.63;;;5.86;100.00
20424;BME280;10371;49.042;8.002;2023-12-20T03:13:08;99979.63;;;5.83;100.00
20424;BME280;10371;49.042;8.002;2023-12-20T03:14:08;99979.56;;;5.85;100.00
20424;BME280;10371;49.042;8.002;2023-12-20T03:15:09;99981.19;;;5.86;100.00
20424;BME280;10371;49.042;8.002;2023-12-20T03:16:10;99979.38;;;5.88;100.00
20424;BME280;10371;49.042;8.002;2023-12-20T03:17:11;99980.09;;;5.90;100.00
20424;BME280;10371;49.042;8.002;2023-12-20T03:18:11;99985.25;;;5.90;100.00
20424;BME280;10371;49.042;8.002;2023-12-20T03:19:11;99988.78;;;5.89;100.00
20424;BME280;10371;49.042;8.002;2023-12-20T03:20:12;99993.13;;;5.89;100.00
20424;BME280;10371;49.042;8.002;2023-12-20T03:21:12;99984.53;;;5.88;100.00
20424;BME280;10371;49.042;8.002;2023-12-20T03:22:13;99983.53;;;5.91;100.00
20424;BME280;10371;49.042;8.002;2023-12-20T03:23:13;99986.09;;;5.91;100.00
20424;BME280;10371;49.042;8.002;2023-12-20T03:24:13;99982.78;;;5.89;100.00
20424;BME280;10371;49.042;8.002;2023-12-20T03:25:13;99994.44;;;5.96;100.00
20424;BME280;10371;49.042;8.002;2023-12-20T03:26:14;99986.69;;;5.96;100.00
20424;BME280;10371;49.042;8.002;2023-12-20T03:27:14;99993.53;;;5.97;100.00
20424;BME280;10371;49.042;8.002;2023-12-20T03:28:15;99996.19;;;5.95;100.00
20424;BME280;10371;49.042;8.002;2023-12-20T03:29:15;99987.53;;;5.96;100.00
20424;BME280;10371;49.042;8.002;2023-12-20T03:30:16;99987.53;;;5.96;100.00
20424;BME280;10371;49.042;8.002;2023-12-20T03:31:16;99980.59;;;5.97;100.00
20424;BME280;10371;49.042;8.002;2023-12-20T03:32:16;99983.25;;;5.95;100.00
20424;BME280;10371;49.042;8.002;2023-12-20T03:33:16;99982.44;;;5.95;100.00
20424;BME280;10371;49.042;8.002;2023-12-20T03:34:17;99973.75;;;5.96;100.00
20424;BME280;10371;49.042;8.002;2023-12-20T03:35:17;99977.28;;;5.95;100.00
20424;BME280;10371;49.042;8.002;2023-12-20T03:36:17;99970.09;;;6.00;100.00
20424;BME280;10371;49.042;8.002;2023-12-20T03:37:17;99975.25;;;6.00;100.00
20424;BME280;10371;49.042;8.002;2023-12-20T03:38:18;99972.03;;;5.96;100.00
20424;BME280;10371;49.042;8.002;2023-12-20T03:39:18;99969.44;;;5.96;100.00
20424;BME280;10371;49.042;8.002;2023-12-20T03:40:18;99971.28;;;5.94;100.00
20424;BME280;10371;49.042;8.002;2023-12-20T03:41:18;99970.47;;;5.94;100.00
20424;BME280;10371;49.042;8.002;2023-12-20T03:42:19;99970.47;;;5.94;100.00
20424;BME280;10371;49.042;8.002;2023-12-20T03:43:19;99979.06;;;5.93;100.00
20424;BME280;10371;49.042;8.002;2023-12-20T03:44:19;99980.84;;;5.92;100.00
20424;BME280;10371;49.042;8.002;2023-12-20T03:45:20;99994.44;;;5.96;100.00
20424;BME280;10371;49.042;8.002;2023-12-20T03:46:20;99985.78;;;5.97;100.00
20424;BME280;10371;49.042;8.002;2023-12-20T03:47:21;99987.44;;;5.98;100.00
20424;BME280;10371;49.042;8.002;2023-12-20T03:48:21;99989.19;;;5.97;100.00
20424;BME280;10371;49.042;8.002;2023-12-20T03:49:21;99992.41;;;6.01;100.00
20424;BME280;10371;49.042;8.002;2023-12-20T03:50:22;99994.16;;;6.00;100.00
20424;BME280;10371;49.042;8.002;2023-12-20T03:51:23;99992.22;;;6.04;100.00
20424;BME280;10371;49.042;8.002;2023-12-20T03:52:23;99984.59;;;6.02;100.00
20424;BME280;10371;49.042;8.002;2023-12-20T03:53:23;99988.56;;;6.08;100.00
20424;BME280;10371;49.042;8.002;2023-12-20T03:54:24;99993.34;;;6.14;100.00
20424;BME280;10371;49.042;8.002;2023-12-20T03:55:24;99993.44;;;6.13;100.00
20424;BME280;10371;49.042;8.002;2023-12-20T03:56:24;99991.78;;;6.12;100.00
20424;BME280;10371;49.042;8.002;2023-12-20T03:57:24;99996.69;;;6.16;100.00
20424;BME280;10371;49.042;8.002;2023-12-20T03:58:25;99993.16;;;6.17;100.00
20424;BME280;10371;49.042;8.002;2023-12-20T03:59:25;99991.53;;;6.16;100.00
20424;BME280;10371;49.042;8.002;2023-12-20T04:00:25;99995.88;;;6.16;100.00
20424;BME280;10371;49.042;8.002;2023-12-20T04:01:25;100008.69;;;6.17;100.00
20424;BME280;10371;49.042;8.002;2023-12-20T04:02:26;100006.19;;;6.16;100.00
20424;BME280;10371;49.042;8.002;2023-12-20T04:03:26;99999.16;;;6.18;100.00
20424;BME280;10371;49.042;8.002;2023-12-20T04:04:26;99991.22;;;6.21;100.00
20424;BME280;10371;49.042;8.002;2023-12-20T04:05:26;99996.22;;;6.24;100.00
20424;BME280;10371;49.042;8.002;2023-12-20T04:06:27;100000.56;;;6.23;100.00
20424;BME280;10371;49.042;8.002;2023-12-20T04:07:27;99997.78;;;6.26;100.00
20424;BME280;10371;49.042;8.002;2023-12-20T04:08:27;99996.88;;;6.28;100.00
20424;BME280;10371;49.042;8.002;2023-12-20T04:09:27;99986.53;;;6.28;100.00
20424;BME280;10371;49.042;8.002;2023-12-20T04:10:28;99996.78;;;6.29;100.00
20424;BME280;10371;49.042;8.002;2023-12-20T04:11:28;99995.88;;;6.30;100.00
20424;BME280;10371;49.042;8.002;2023-12-20T04:12:28;99986.63;;;6.26;100.00
20424;BME280;10371;49.042;8.002;2023-12-20T04:13:28;99995.31;;;6.25;100.00
20424;BME280;10371;49.042;8.002;2023-12-20T04:14:29;99999.84;;;6.21;100.00
20424;BME280;10371;49.042;8.002;2023-12-20T04:15:29;99997.25;;;6.21;100.00
20424;BME280;10371;49.042;8.002;2023-12-20T04:16:30;99997.25;;;6.21;100.00
20424;BME280;10371;49.042;8.002;2023-12-20T04:17:30;100009.25;;;6.22;100.00
20424;BME280;10371;49.042;8.002;2023-12-20T04:18:30;100006.47;;;6.25;100.00
20424;BME280;10371;49.042;8.002;2023-12-20T04:19:32;100012.47;;;6.26;100.00
20424;BME280;10371;49.042;8.002;2023-12-20T04:20:32;100008.50;;;6.20;100.00
20424;BME280;10371;49.042;8.002;2023-12-20T04:21:32;100020.16;;;6.28;100.00
20424;BME280;10371;49.042;8.002;2023-12-20T04:22:32;100012.94;;;6.33;100.00
20424;BME280;10371;49.042;8.002;2023-12-20T04:23:33;100017.38;;;6.31;100.00
20424;BME280;10371;49.042;8.002;2023-12-20T04:24:33;100020.03;;;6.29;100.00
20424;BME280;10371;49.042;8.002;2023-12-20T04:25:33;100021.03;;;6.26;100.00
20424;BME280;10371;49.042;8.002;2023-12-20T04:26:33;100017.00;;;6.22;100.00
20424;BME280;10371;49.042;8.002;2023-12-20T04:27:34;100022.91;;;6.24;100.00
20424;BME280;10371;49.042;8.002;2023-12-20T04:28:34;100026.97;;;6.29;100.00
20424;BME280;10371;49.042;8.002;2023-12-20T04:29:34;100015.06;;;6.26;100.00
20424;BME280;10371;49.042;8.002;2023-12-20T04:30:34;100017.44;;;6.29;100.00
20424;BME280;10371;49.042;8.002;2023-12-20T04:31:35;100024.31;;;6.30;100.00
20424;BME280;10371;49.042;8.002;2023-12-20T04:32:35;100030.38;;;6.29;100.00
20424;BME280;10371;49.042;8.002;2023-12-20T04:33:35;100019.31;;;6.27;100.00
20424;BME280;10371;49.042;8.002;2023-12-20T04:34:36;100030.38;;;6.29;100.00
20424;BME280;10371;49.042;8.002;2023-12-20T04:35:37;100027.59;;;6.32;100.00
20424;BME280;10371;49.042;8.002;2023-12-20T04:36:37;100030.13;;;6.34;100.00
20424;BME280;10371;49.042;8.002;2023-12-20T04:37:37;100038.81;;;6.33;100.00
20424;BME280;10371;49.042;8.002;2023-12-20T04:38:37;100032.69;;;6.34;100.00
20424;BME280;10371;49.042;8.002;2023-12-20T04:39:38;100025.31;;;6.28;100.00
20424;BME280;10371;49.042;8.002;2023-12-20T04:40:38;100021.97;;;6.25;100.00
20424;BME280;10371;49.042;8.002;2023-12-20T04:41:40;100038.50;;;6.23;100.00
20424;BME280;10371;49.042;8.002;2023-12-20T04:42:41;100031.38;;;6.26;100.00
20424;BME280;10371;49.042;8.002;2023-12-20T04:43:41;100033.16;;;6.26;100.00
20424;BME280;10371;49.042;8.002;2023-12-20T04:44:42;100038.31;;;6.26;100.00
20424;BME280;10371;49.042;8.002;2023-12-20T04:45:43;100028.91;;;6.25;100.00
20424;BME280;10371;49.042;8.002;2023-12-20T04:46:44;100031.50;;;6.25;100.00
20424;BME280;10371;49.042;8.002;2023-12-20T04:47:44;100028.16;;;6.23;100.00
20424;BME280;10371;49.042;8.002;2023-12-20T04:48:46;100034.16;;;6.23;100.00
20424;BME280;10371;49.042;8.002;2023-12-20T04:49:47;100037.50;;;6.25;100.00
20424;BME280;10371;49.042;8.002;2023-12-20T04:50:47;100044.16;;;6.30;100.00
20424;BME280;10371;49.042;8.002;2023-12-20T04:51:47;100043.78;;;6.36;100.00
20424;BME280;10371;49.042;8.002;2023-12-20T04:52:47;100041.28;;;6.34;100.00
20424;BME280;10371;49.042;8.002;2023-12-20T04:53:48;100047.47;;;6.32;100.00
20424;BME280;10371;49.042;8.002;2023-12-20T04:54:48;100056.53;;;6.24;100.00
20424;BME280;10371;49.042;8.002;2023-12-20T04:55:48;100049.66;;;6.23;100.00
20424;BME280;10371;49.042;8.002;2023-12-20T04:56:49;100056.41;;;6.26;100.00
20424;BME280;10371;49.042;8.002;2023-12-20T04:57:49;100057.09;;;6.30;100.00
20424;BME280;10371;49.042;8.002;2023-12-20T04:58:50;100057.63;;;6.35;100.00
20424;BME280;10371;49.042;8.002;2023-12-20T04:59:50;100044.06;;;6.31;100.00
20424;BME280;10371;49.042;8.002;2023-12-20T05:00:50;100053.56;;;6.31;100.00
20424;BME280;10371;49.042;8.002;2023-12-20T05:01:50;100061.31;;;6.31;100.00
20424;BME280;10371;49.042;8.002;2023-12-20T05:02:51;100056.03;;;6.32;100.00
20424;BME280;10371;49.042;8.002;2023-12-20T05:03:52;100056.78;;;6.34;100.00
20424;BME280;10371;49.042;8.002;2023-12-20T05:04:52;100045.00;;;6.30;100.00
20424;BME280;10371;49.042;8.002;2023-12-20T05:05:52;100048.41;;;6.31;100.00
20424;BME280;10371;49.042;8.002;2023-12-20T05:06:53;100038.25;;;6.28;100.00
20424;BME280;10371;49.042;8.002;2023-12-20T05:07:53;100042.47;;;6.29;100.00
20424;BME280;10371;49.042;8.002;2023-12-20T05:08:53;100045.00;;;6.30;100.00
20424;BME280;10371;49.042;8.002;2023-12-20T05:09:53;100037.13;;;6.32;100.00
20424;BME280;10371;49.042;8.002;2023-12-20T05:10:54;100040.47;;;6.34;100.00
20424;BME280;10371;49.042;8.002;2023-12-20T05:11:55;100034.72;;;6.29;100.00
20424;BME280;10371;49.042;8.002;2023-12-20T05:12:55;100045.16;;;6.27;100.00
20424;BME280;10371;49.042;8.002;2023-12-20T05:13:55;100051.16;;;6.28;100.00
20424;BME280;10371;49.042;8.002;2023-12-20T05:14:56;100052.94;;;6.27;100.00
20424;BME280;10371;49.042;8.002;2023-12-20T05:15:56;100051.34;;;6.24;100.00
20424;BME280;10371;49.042;8.002;2023-12-20T05:16:56;100058.75;;;6.31;100.00
20424;BME280;10371;49.042;8.002;2023-12-20T05:17:56;100058.56;;;6.34;100.00